createdAt,value
2023-03-12T00:01:54.013Z,4.12
2023-03-12T00:04:27.506Z,4.17
2023-03-12T00:07:01.214Z,4.17
2023-03-12T00:09:37.470Z,5.58
2023-03-12T00:12:11.872Z,5.83
2023-03-12T00:14:45.264Z,4.03
2023-03-12T00:17:18.780Z,4.97
2023-03-12T00:19:55.498Z,6.33
2023-03-12T00:22:29.270Z,6.28
2023-03-12T00:25:02.399Z,5.83
2023-03-12T00:27:35.956Z,5.83
2023-03-12T00:30:12.127Z,4.85
2023-03-12T00:32:45.644Z,5.15
2023-03-12T00:35:19.123Z,6.15
2023-03-12T00:37:52.399Z,4.75
2023-03-12T00:40:25.741Z,7.08
2023-03-12T00:42:59.455Z,7.72
2023-03-12T00:45:32.818Z,7.78
2023-03-12T00:48:06.545Z,6.58
2023-03-12T00:50:40.090Z,6.78
2023-03-12T00:53:13.430Z,6.47
2023-03-12T00:55:47.076Z,6.28
2023-03-12T00:58:20.539Z,4.78
2023-03-12T01:00:54.063Z,7.28
2023-03-12T01:03:27.659Z,7.70
2023-03-12T01:06:01.645Z,7.22
2023-03-12T01:08:35.060Z,7.15
2023-03-12T01:11:08.804Z,4.87
2023-03-12T01:13:42.203Z,7.42
2023-03-12T01:16:15.656Z,5.00
2023-03-12T01:18:49.102Z,5.62
2023-03-12T01:21:22.632Z,6.22
2023-03-12T01:23:56.663Z,6.87
2023-03-12T01:26:30.355Z,6.37
2023-03-12T01:29:03.775Z,6.33
2023-03-12T01:31:37.497Z,7.42
2023-03-12T01:34:13.771Z,6.35
2023-03-12T01:36:47.878Z,7.62
2023-03-12T01:39:21.294Z,12.03
2023-03-12T01:41:54.537Z,8.60
2023-03-12T01:44:28.206Z,10.90
2023-03-12T01:47:01.687Z,8.80
2023-03-12T01:49:36.331Z,9.88
2023-03-12T01:52:12.223Z,13.32
2023-03-12T01:54:49.507Z,16.85
2023-03-12T01:57:26.050Z,15.38
2023-03-12T02:00:04.646Z,27.35
2023-03-12T02:02:40.473Z,19.80
2023-03-12T02:05:17.895Z,49.75
2023-03-12T02:07:51.911Z,135.77
2023-03-12T02:10:26.153Z,246.30
2023-03-12T02:12:59.721Z,168.30
2023-03-12T02:15:33.656Z,267.05
2023-03-12T02:18:08.745Z,170.38
2023-03-12T02:20:45.618Z,281.27
2023-03-12T02:23:22.654Z,142.82
2023-03-12T02:25:57.918Z,296.07
2023-03-12T02:28:33.854Z,462.70
2023-03-12T02:31:08.205Z,154.10
2023-03-12T02:33:41.956Z,266.57
2023-03-12T02:36:15.724Z,294.62
2023-03-12T02:38:50.973Z,250.20
2023-03-12T02:41:27.223Z,293.88
2023-03-12T02:44:04.984Z,490.47
2023-03-12T02:46:42.105Z,455.95
2023-03-12T02:49:17.007Z,190.92
2023-03-12T02:51:50.986Z,258.30
2023-03-12T02:54:25.714Z,120.30
2023-03-12T02:57:00.312Z,283.00
2023-03-12T02:59:34.575Z,89.37
2023-03-12T03:02:11.580Z,105.40
2023-03-12T03:04:45.173Z,181.63
2023-03-12T03:07:18.726Z,82.40
2023-03-12T03:09:52.208Z,38.95
2023-03-12T03:12:25.667Z,20.00
2023-03-12T03:14:59.795Z,24.75
2023-03-12T03:17:34.104Z,27.52
2023-03-12T03:20:11.510Z,17.62
2023-03-12T03:22:45.090Z,17.10
2023-03-12T03:25:20.468Z,17.42
2023-03-12T03:27:53.972Z,14.78
2023-03-12T03:30:27.504Z,18.02
2023-03-12T03:33:00.807Z,15.75
2023-03-12T03:35:34.952Z,20.37
2023-03-12T03:38:08.644Z,11.53
2023-03-12T03:40:42.032Z,13.80
2023-03-12T03:43:15.931Z,15.00
2023-03-12T03:45:52.247Z,20.25
2023-03-12T03:48:26.033Z,22.35
2023-03-12T03:51:02.317Z,17.55
2023-03-12T03:53:37.213Z,21.60
2023-03-12T03:56:13.221Z,55.58
2023-03-12T03:58:48.721Z,36.77
2023-03-12T04:01:22.950Z,32.08
2023-03-12T04:03:56.935Z,26.37
2023-03-12T04:06:30.879Z,39.10
2023-03-12T04:09:04.695Z,53.02
2023-03-12T04:11:39.042Z,50.52
2023-03-12T04:14:12.960Z,96.72
2023-03-12T04:16:47.326Z,22.07
2023-03-12T04:19:32.637Z,36.53
2023-03-12T04:22:40.810Z,49.33
2023-03-12T04:26:08.608Z,105.07
2023-03-12T04:29:11.500Z,166.00
2023-03-12T04:31:51.548Z,155.45
2023-03-12T04:34:25.151Z,191.37
2023-03-12T04:36:58.636Z,92.57
2023-03-12T04:39:31.957Z,281.23
2023-03-12T04:42:05.663Z,95.50
2023-03-12T04:44:41.152Z,70.50
2023-03-12T04:47:14.981Z,103.25
2023-03-12T04:49:48.700Z,32.35
2023-03-12T04:52:22.043Z,26.75
2023-03-12T04:54:55.803Z,24.72
2023-03-12T04:57:29.529Z,27.25
2023-03-12T05:00:03.547Z,20.32
2023-03-12T05:02:37.823Z,24.12
2023-03-12T05:05:13.522Z,19.35
2023-03-12T05:07:47.747Z,24.07
2023-03-12T05:10:21.731Z,15.43
2023-03-12T05:12:55.346Z,18.00
2023-03-12T05:15:29.426Z,17.48
2023-03-12T05:18:03.058Z,20.60
2023-03-12T05:20:36.574Z,17.57
2023-03-12T05:23:10.401Z,21.90
2023-03-12T05:25:44.167Z,28.40
2023-03-12T05:28:17.499Z,28.98
2023-03-12T05:30:51.015Z,38.50
2023-03-12T05:33:24.223Z,39.45
2023-03-12T05:35:58.214Z,29.72
2023-03-12T05:38:32.137Z,28.42
2023-03-12T05:41:06.027Z,25.32
2023-03-12T05:43:40.949Z,21.48
2023-03-12T05:46:14.685Z,29.63
2023-03-12T05:48:48.623Z,18.45
2023-03-12T05:51:23.390Z,21.87
2023-03-12T05:53:56.830Z,11.18
2023-03-12T05:56:31.270Z,22.42
2023-03-12T05:59:05.214Z,22.70
2023-03-12T06:01:39.254Z,16.30
2023-03-12T06:04:12.711Z,24.72
2023-03-12T06:06:46.050Z,24.10
2023-03-12T06:09:19.364Z,29.12
2023-03-12T06:11:53.099Z,29.35
2023-03-12T06:14:27.036Z,29.45
2023-03-12T06:17:00.924Z,19.57
2023-03-12T06:19:34.864Z,19.65
2023-03-12T06:22:08.770Z,22.20
2023-03-12T06:24:42.707Z,23.52
2023-03-12T06:27:16.272Z,22.90
2023-03-12T06:29:50.027Z,27.58
2023-03-12T06:32:26.216Z,22.95
2023-03-12T06:35:02.492Z,29.32
2023-03-12T06:37:35.801Z,32.23
2023-03-12T06:44:06.626Z,18.73
2023-03-12T06:46:42.718Z,16.00
2023-03-12T06:49:17.049Z,21.40
2023-03-12T06:51:50.333Z,26.25
2023-03-12T06:54:23.657Z,25.77
2023-03-12T06:56:57.108Z,29.35
2023-03-12T06:59:30.487Z,27.93
2023-03-12T07:02:03.957Z,18.77
2023-03-12T07:04:37.413Z,27.75
2023-03-12T07:07:12.560Z,26.00
2023-03-12T07:09:45.904Z,33.33
2023-03-12T07:12:19.269Z,23.10
2023-03-12T07:14:52.700Z,22.65
2023-03-12T07:17:26.455Z,28.70
2023-03-12T07:19:59.759Z,26.93
2023-03-12T07:22:34.447Z,31.27
2023-03-12T07:25:09.966Z,22.58
2023-03-12T07:27:43.371Z,26.62
2023-03-12T07:30:18.083Z,24.55
2023-03-12T07:32:51.544Z,32.45
2023-03-12T07:35:25.070Z,28.07
2023-03-12T07:37:58.647Z,27.52
2023-03-12T07:40:33.635Z,22.07
2023-03-12T07:43:09.258Z,32.53
2023-03-12T07:45:43.223Z,18.80
2023-03-12T07:48:20.093Z,23.15
2023-03-12T07:50:53.289Z,24.83
2023-03-12T07:53:26.991Z,22.30
2023-03-12T07:56:00.917Z,34.35
2023-03-12T07:58:36.751Z,16.70
